METAR Data
IDs: Format: Raw Decoded Include TAF

Data at: 1732 UTC 03 Jun 2020

KSUS 031654Z 25008KT 6SM HZ SCT035 31/21 A2990 RMK AO2 SLP115 T03060211
KSUS 031554Z 26009G15KT 7SM SCT060 29/20 A2991 RMK AO2 SLP119 T02890200
KSUS 031454Z 25006KT 10SM SCT065 28/20 A2993 RMK AO2 SLP125 T02780200 58000
KSUS 031354Z 25008KT 10SM CLR 26/19 A2994 RMK AO2 SLP128 T02610189
KSUS 031254Z 24007KT 10SM CLR 24/18 A2993 RMK AO2 SLP128 T02390183
KSUS 031154Z AUTO 23007KT 10SM CLR 22/18 A2993 RMK AO2 SLP126 T02220178 10222 20189 55003
KSUS 031054Z AUTO 25005KT 10SM CLR 21/17 A2993 RMK AO2 SLP126 T02110172
KSUS 030954Z AUTO 23004KT 10SM CLR 21/17 A2993 RMK AO2 SLP127 T02060172
KSUS 030854Z AUTO 00000KT 10SM CLR 20/17 A2994 RMK AO2 SLP129 T02000167 56009
KSUS 030754Z AUTO 27003KT 10SM CLR 21/17 A2994 RMK AO2 SLP129 T02110167
KSUS 030654Z AUTO 00000KT 10SM CLR 20/17 A2996 RMK AO2 SLP136 T02000172
KSUS 030554Z AUTO 20003KT 10SM CLR 23/17 A2997 RMK AO2 SLP138 T02280172 10289 20206 403170189 51009
KSUS 030454Z AUTO VRB03KT 10SM CLR 21/17 A2996 RMK AO2 SLP138 T02110172
KSUS 030354Z AUTO 00000KT 10SM CLR 22/17 A2996 RMK AO2 SLP136 T02170172
KSUS 030254Z AUTO 20005KT 10SM CLR 25/17 A2994 RMK AO2 SLP130 T02500167 55001
KSUS 030154Z AUTO 19006KT 10SM CLR 26/17 A2994 RMK AO2 SLP129 T02560172
KSUS 030054Z AUTO 19005KT 10SM CLR 27/18 A2994 RMK AO2 SLP130 T02720183
KSUS 022354Z AUTO 19003KT 10SM CLR 29/19 A2994 RMK AO2 SLP132 T02890194 10317 20289 58012
KSUS 022254Z 21004KT 10SM CLR 30/17 A2996 RMK AO2 SLP136 T03000172
KSUS 022154Z 23008KT 10SM CLR 31/16 A2997 RMK AO2 SLP140 T03110161
KSUS 022054Z 20010KT 10SM CLR 31/17 A2998 RMK AO2 SLP143 T03110167 56016
KSUS 021954Z 25011G18KT 9SM CLR 31/16 A2999 RMK AO2 SLP147 T03110161
KSUS 021854Z 24006KT 10SM CLR 31/17 A3001 RMK AO2 SLP152 T03060172
KSUS 021754Z 25010KT 10SM CLR 30/18 A3003 RMK AO2 SLP158 T03000178 10300 20217 57014
KSUS 021654Z 26008KT 10SM CLR 29/18 A3004 RMK AO2 SLP163 T02890178
KSUS 021554Z 22010KT 10SM CLR 27/17 A3005 RMK AO2 SLP169 T02720172
KSUS 021454Z 22008KT 10SM CLR 26/17 A3007 RMK AO2 SLP174 T02610167 50000
KSUS 021354Z 25011KT 10SM CLR 24/16 A3008 RMK AO2 SLP176 T02390161
KSUS 021254Z 23008KT 10SM CLR 22/16 A3007 RMK AO2 SLP175 T02220156
KSUS 021154Z AUTO 22008KT 10SM CLR 22/15 A3007 RMK AO2 SLP173 T02170150 10222 20189 53007
KSUS 021054Z AUTO 00000KT 10SM CLR 20/14 A3006 RMK AO2 SLP171 T02000144
KSUS 020954Z AUTO 00000KT 10SM CLR 19/14 A3005 RMK AO2 SLP169 T01940144
KSUS 020854Z AUTO 00000KT 10SM CLR 19/14 A3005 RMK AO2 SLP167 T01940139 55004
KSUS 020754Z AUTO VRB03KT 10SM CLR 21/14 A3004 RMK AO2 SLP165 T02110139
KSUS 020654Z AUTO 21006KT 10SM CLR 22/14 A3005 RMK AO2 SLP170 T02170139
KSUS 020554Z AUTO 20008KT 10SM CLR 22/14 A3006 RMK AO2 SLP172 T02220139 10272 20222 402890150 58005